Time;durP1;ratioP1;P1;durP2;ratioP2;P2;SDS_P1;SDS_P2;PMS_P1;PMS_P2;Temp;Humidity;BMP_temperature;BMP_pressure;BME280_temperature;BME280_humidity;BME280_pressure;Samples;Min_cycle;Max_cycle;Signal;HPM_P1;HPM_P2
2021/08/09 00:02:15;;;;;;;0.70;0.70;;;15.30;93.40;;;;;;5075572;28;20161;-81
2021/08/09 00:04:40;;;;;;;1.73;0.80;;;15.20;93.40;;;;;;5075867;28;20044;-81
2021/08/09 00:07:07;;;;;;;1.10;0.85;;;15.20;93.40;;;;;;5075780;28;20461;-81
2021/08/09 00:09:33;;;;;;;0.57;0.57;;;15.20;93.40;;;;;;5057641;28;20462;-81
2021/08/09 00:12:00;;;;;;;1.30;0.90;;;15.20;93.40;;;;;;5075720;28;20024;-81
2021/08/09 00:14:26;;;;;;;1.05;0.90;;;15.20;93.40;;;;;;5075558;28;20472;-81
2021/08/09 00:16:51;;;;;;;1.13;0.90;;;15.20;93.40;;;;;;5057066;28;20028;-80
2021/08/09 00:19:17;;;;;;;1.20;0.82;;;15.20;93.40;;;;;;5075587;28;20025;-81
2021/08/09 00:21:42;;;;;;;1.30;1.13;;;15.20;93.40;;;;;;5057408;28;20077;-81
2021/08/09 00:24:08;;;;;;;0.73;0.70;;;15.20;93.40;;;;;;5075383;28;20389;-81
2021/08/09 00:26:34;;;;;;;0.77;0.77;;;15.20;93.40;;;;;;5075494;28;20462;-82
2021/08/09 00:29:00;;;;;;;1.27;0.63;;;15.20;93.40;;;;;;5075444;28;20028;-82
2021/08/09 00:31:25;;;;;;;1.58;0.95;;;15.20;93.40;;;;;;5074872;28;20401;-81
2021/08/09 00:33:51;;;;;;;0.80;0.60;;;15.20;93.40;;;;;;5057330;28;20063;-81
2021/08/09 00:36:16;;;;;;;1.30;0.90;;;15.20;93.40;;;;;;5057257;28;20024;-78
2021/08/09 00:38:42;;;;;;;0.95;0.63;;;15.20;93.40;;;;;;5075227;28;20033;-80
2021/08/09 00:41:08;;;;;;;0.90;0.80;;;15.20;93.40;;;;;;5075073;28;20029;-80
2021/08/09 00:43:33;;;;;;;1.70;0.75;;;15.10;93.30;;;;;;5075414;28;20024;-81
2021/08/09 00:46:04;;;;;;;1.52;1.10;;;15.10;93.40;;;;;;5074182;28;20048;-79
2021/08/09 00:48:31;;;;;;;1.08;0.77;;;15.10;93.40;;;;;;5057146;28;20021;-82
2021/08/09 00:50:57;;;;;;;0.90;0.90;;;15.10;93.40;;;;;;5074815;28;20036;-81
2021/08/09 00:53:22;;;;;;;0.63;0.60;;;15.10;93.40;;;;;;5074994;28;20025;-81
2021/08/09 00:55:51;;;;;;;0.80;0.80;;;15.10;93.30;;;;;;5074922;28;20465;-81
2021/08/09 00:58:17;;;;;;;0.53;0.53;;;15.10;93.30;;;;;;5074793;28;20032;-82
2021/08/09 01:00:42;;;;;;;0.70;0.70;;;15.10;93.30;;;;;;5074155;28;20432;-79
2021/08/09 01:03:08;;;;;;;1.98;1.00;;;15.00;93.30;;;;;;5074718;28;20024;-80
2021/08/09 01:05:33;;;;;;;1.77;0.95;;;15.10;93.30;;;;;;5056703;28;20056;-80
2021/08/09 01:08:32;;;;;;;0.88;0.77;;;15.00;93.30;;;;;;5074629;28;20025;-80
2021/08/09 01:11:12;;;;;;;1.23;1.02;;;15.10;93.20;;;;;;5074944;28;20017;-80
2021/08/09 01:13:59;;;;;;;0.55;0.50;;;15.00;93.20;;;;;;5073951;28;20025;-80
2021/08/09 01:16:48;;;;;;;0.60;0.60;;;15.00;93.20;;;;;;5074403;28;20024;-81
2021/08/09 01:19:40;;;;;;;1.45;0.85;;;15.00;93.20;;;;;;5074445;28;20063;-79
2021/08/09 01:22:34;;;;;;;1.33;1.23;;;15.00;93.20;;;;;;5074527;28;20489;-80
2021/08/09 01:25:11;;;;;;;1.00;0.90;;;15.00;93.10;;;;;;5074377;28;20028;-80
2021/08/09 01:27:40;;;;;;;0.88;0.63;;;14.90;93.20;;;;;;5074326;28;20029;-80
2021/08/09 01:30:08;;;;;;;;;;;15.00;93.20;;;;;;5075043;28;20016;-81
2021/08/09 01:32:41;;;;;;;0.68;0.68;;;14.90;93.20;;;;;;5056202;28;19970;-81
2021/08/09 01:35:08;;;;;;;1.77;1.08;;;14.90;93.30;;;;;;5074233;28;20105;-82
2021/08/09 01:37:40;;;;;;;0.57;0.57;;;14.90;93.30;;;;;;5073856;28;20036;-81
2021/08/09 01:40:07;;;;;;;1.02;0.90;;;14.90;93.30;;;;;;5074169;28;20112;-82
2021/08/09 01:42:34;;;;;;;0.88;0.70;;;14.90;93.20;;;;;;5073454;28;20028;-82
2021/08/09 01:45:00;;;;;;;0.80;0.80;;;14.90;93.20;;;;;;5073988;28;20051;-81
2021/08/09 01:47:26;;;;;;;0.90;0.90;;;14.90;93.20;;;;;;5073873;28;20024;-81
2021/08/09 01:49:53;;;;;;;0.85;0.80;;;14.90;93.20;;;;;;5073857;28;20035;-81
2021/08/09 01:52:20;;;;;;;1.50;0.88;;;14.90;93.20;;;;;;5055909;28;20016;-81
2021/08/09 01:54:47;;;;;;;1.20;0.73;;;14.80;93.20;;;;;;5055857;28;20461;-81
2021/08/09 01:57:13;;;;;;;0.68;0.68;;;14.80;93.20;;;;;;5072502;28;20415;-81
2021/08/09 01:59:38;;;;;;;1.38;0.88;;;14.80;93.20;;;;;;5073602;28;20024;-81
2021/08/09 02:02:04;;;;;;;1.30;0.98;;;14.80;93.20;;;;;;5073790;28;20473;-80
2021/08/09 02:04:29;;;;;;;1.42;0.98;;;14.80;93.20;;;;;;5073581;28;20029;-81
2021/08/09 02:06:55;;;;;;;0.88;0.73;;;14.80;93.20;;;;;;5073618;28;20020;-82
2021/08/09 02:09:20;;;;;;;1.15;0.70;;;14.80;93.20;;;;;;5055698;28;20020;-82
2021/08/09 02:12:05;;;;;;;0.82;0.70;;;14.80;93.20;;;;;;5073050;28;20033;-83
2021/08/09 02:14:35;;;;;;;1.35;0.90;;;14.80;93.20;;;;;;5073412;28;20032;-82
2021/08/09 02:17:16;;;;;;;0.90;0.90;;;14.80;93.20;;;;;;5073307;28;20107;-82
2021/08/09 02:20:00;;;;;;;0.95;0.52;;;14.80;93.10;;;;;;5073451;28;20040;-84
2021/08/09 02:22:39;;;;;;;0.75;0.70;;;14.80;93.10;;;;;;5055192;28;20049;-82
2021/08/09 02:25:08;;;;;;;0.70;0.60;;;14.70;93.20;;;;;;5073329;28;20031;-82
2021/08/09 02:27:40;;;;;;;0.73;0.73;;;14.70;93.20;;;;;;5072872;28;20107;-83
2021/08/09 02:30:07;;;;;;;1.80;1.70;;;14.80;93.20;;;;;;5073363;28;20082;-81
2021/08/09 02:32:37;;;;;;;1.08;0.82;;;14.70;93.10;;;;;;5073378;28;20047;-82
2021/08/09 02:35:04;;;;;;;;;;;14.80;93.10;;;;;;5073588;28;20021;-81
2021/08/09 02:37:30;;;;;;;0.70;0.70;;;14.80;93.10;;;;;;5073033;28;19912;-80
2021/08/09 02:39:58;;;;;;;1.20;0.80;;;14.70;93.10;;;;;;5072639;28;20103;-81
2021/08/09 02:42:24;;;;;;;0.70;0.60;;;14.80;93.10;;;;;;5073270;28;20039;-81
2021/08/09 02:44:49;;;;;;;1.92;0.88;;;14.80;93.10;;;;;;5073344;28;20024;-82
2021/08/09 02:47:16;;;;;;;1.30;0.85;;;14.80;93.10;;;;;;5073070;28;20504;-81
2021/08/09 02:49:48;;;;;;;1.75;0.93;;;14.80;93.10;;;;;;5072999;28;20033;-81
2021/08/09 02:52:15;;;;;;;0.70;0.63;;;14.80;93.10;;;;;;5073149;28;20020;-81
2021/08/09 02:54:45;;;;;;;1.27;0.80;;;14.80;93.10;;;;;;5072700;28;20063;-82
2021/08/09 02:57:12;;;;;;;0.68;0.68;;;14.80;93.10;;;;;;5055129;28;20031;-83
2021/08/09 02:59:37;;;;;;;1.25;0.95;;;14.80;93.10;;;;;;5072842;28;20031;-81
2021/08/09 03:02:06;;;;;;;0.80;0.80;;;14.80;93.00;;;;;;5055060;28;20103;-82
2021/08/09 03:04:35;;;;;;;1.02;0.80;;;14.80;93.10;;;;;;5055015;28;20093;-81
2021/08/09 03:07:05;;;;;;;0.93;0.77;;;14.80;93.10;;;;;;5073119;28;20183;-82
2021/08/09 03:09:33;;;;;;;0.55;0.55;;;14.70;93.00;;;;;;5074326;28;20023;-81
2021/08/09 03:11:58;;;;;;;1.55;0.70;;;14.70;93.10;;;;;;5076928;28;20024;-82
2021/08/09 03:14:25;;;;;;;1.33;0.70;;;14.70;93.00;;;;;;5058903;28;20027;-82
2021/08/09 03:16:52;;;;;;;0.70;0.70;;;14.70;93.00;;;;;;5058735;28;20150;-82
2021/08/09 03:19:18;;;;;;;0.93;0.82;;;14.70;93.00;;;;;;5058743;28;20032;-81
2021/08/09 03:21:55;;;;;;;1.67;0.80;;;14.70;93.00;;;;;;5076361;28;20051;-82
2021/08/09 03:24:22;;;;;;;2.05;0.98;;;14.80;93.00;;;;;;5076273;28;20402;-82
2021/08/09 03:26:48;;;;;;;1.35;0.70;;;14.70;93.00;;;;;;5076612;28;20358;-80
2021/08/09 03:29:16;;;;;;;1.50;0.73;;;14.80;93.00;;;;;;5076394;28;20029;-82
2021/08/09 03:31:42;;;;;;;2.28;0.90;;;14.80;93.00;;;;;;5058468;28;20530;-82
2021/08/09 03:34:07;;;;;;;0.70;0.70;;;14.80;93.00;;;;;;5076586;28;20025;-82
2021/08/09 03:36:33;;;;;;;2.10;0.85;;;14.80;93.00;;;;;;5076684;28;20020;-81
2021/08/09 03:38:58;;;;;;;1.40;1.00;;;14.80;93.00;;;;;;5076075;28;20072;-83
2021/08/09 03:41:24;;;;;;;1.20;0.80;;;14.80;92.90;;;;;;5076381;28;20032;-82
2021/08/09 03:43:50;;;;;;;1.08;0.75;;;14.80;93.00;;;;;;5058367;28;20021;-82
2021/08/09 03:46:15;;;;;;;0.65;0.60;;;14.80;93.00;;;;;;5076298;28;20032;-81
2021/08/09 03:48:41;;;;;;;0.65;0.50;;;14.80;93.00;;;;;;5076289;28;20490;-82
2021/08/09 03:51:07;;;;;;;0.95;0.77;;;14.80;93.00;;;;;;5076141;28;20020;-82
2021/08/09 03:53:33;;;;;;;0.75;0.75;;;14.80;93.00;;;;;;5075723;28;20488;-81
2021/08/09 03:55:59;;;;;;;1.55;0.73;;;14.80;93.00;;;;;;5075949;28;20020;-81
2021/08/09 03:58:24;;;;;;;0.65;0.65;;;14.80;93.00;;;;;;5075909;28;20036;-81
2021/08/09 04:00:50;;;;;;;0.68;0.68;;;14.80;92.90;;;;;;5058110;28;20021;-82
2021/08/09 04:03:16;;;;;;;2.45;0.85;;;14.80;93.00;;;;;;5075861;28;20024;-83
2021/08/09 04:05:41;;;;;;;1.23;0.63;;;14.80;93.00;;;;;;5057918;28;20050;-83
2021/08/09 04:08:07;;;;;;;0.70;0.70;;;14.80;92.90;;;;;;5057670;28;20032;-83
2021/08/09 04:10:32;;;;;;;0.73;0.57;;;14.90;93.00;;;;;;5076041;28;20466;-83
2021/08/09 04:12:58;;;;;;;0.52;0.52;;;14.80;92.90;;;;;;5075904;28;20033;-82
2021/08/09 04:15:23;;;;;;;0.50;0.50;;;14.90;93.20;;;;;;5075807;28;20013;-83
2021/08/09 04:17:49;;;;;;;0.50;0.47;;;14.90;92.90;;;;;;5075606;28;20039;-83
2021/08/09 04:20:15;;;;;;;1.90;0.88;;;14.90;92.90;;;;;;5056837;28;20055;-81
2021/08/09 04:22:40;;;;;;;0.85;0.45;;;14.90;92.90;;;;;;5075151;28;20500;-82
2021/08/09 04:25:06;;;;;;;0.57;0.57;;;14.80;92.90;;;;;;5075645;28;20028;-81
2021/08/09 04:27:33;;;;;;;0.63;0.50;;;14.80;92.90;;;;;;5075419;28;20020;-81
2021/08/09 04:29:58;;;;;;;0.70;0.60;;;14.80;92.90;;;;;;5075404;28;20501;-83
2021/08/09 04:32:24;;;;;;;0.73;0.60;;;14.80;92.90;;;;;;5075454;28;20031;-82
2021/08/09 04:34:49;;;;;;;0.35;0.35;;;14.80;92.90;;;;;;5057518;28;20177;-83
2021/08/09 04:37:16;;;;;;;1.27;0.80;;;14.80;92.90;;;;;;5074937;28;20029;-85
2021/08/09 04:39:42;;;;;;;0.95;0.65;;;14.80;92.90;;;;;;5075512;28;20112;-84
2021/08/09 04:42:08;;;;;;;1.17;0.82;;;14.80;93.20;;;;;;5075256;28;20103;-83
2021/08/09 04:44:33;;;;;;;1.92;0.88;;;14.80;92.90;;;;;;5075112;28;20021;-83
2021/08/09 04:46:59;;;;;;;0.57;0.57;;;14.80;92.90;;;;;;5075230;28;20024;-83
2021/08/09 04:49:25;;;;;;;0.85;0.60;;;14.90;92.90;;;;;;5075265;28;20429;-83
2021/08/09 04:51:54;;;;;;;0.90;0.70;;;14.90;92.90;;;;;;5056877;28;20021;-82
2021/08/09 04:54:20;;;;;;;1.35;0.80;;;14.90;93.20;;;;;;5074999;28;20079;-82
2021/08/09 04:56:45;;;;;;;1.15;0.82;;;14.90;92.90;;;;;;5074883;28;20465;-82
2021/08/09 04:59:11;;;;;;;1.83;0.75;;;15.00;92.90;;;;;;5074753;28;20481;-81
2021/08/09 05:01:36;;;;;;;2.03;0.70;;;15.00;92.80;;;;;;5074795;28;20386;-82
2021/08/09 05:04:03;;;;;;;0.60;0.60;;;15.00;92.80;;;;;;5074833;28;20423;-83
2021/08/09 05:06:31;;;;;;;0.45;0.45;;;15.20;92.80;;;;;;5074358;28;20017;-83
2021/08/09 05:08:57;;;;;;;0.50;0.43;;;15.20;92.80;;;;;;5074862;28;20032;-83
2021/08/09 05:11:22;;;;;;;0.28;0.28;;;15.20;92.70;;;;;;5074695;28;20119;-83
2021/08/09 05:13:48;;;;;;;0.57;0.50;;;15.30;92.70;;;;;;5074526;28;20016;-83
2021/08/09 05:16:14;;;;;;;0.45;0.45;;;15.40;92.70;;;;;;5074585;28;20031;-82
2021/08/09 05:18:40;;;;;;;0.40;0.40;;;15.40;92.70;;;;;;5056524;28;20071;-81
2021/08/09 05:21:06;;;;;;;0.85;0.60;;;15.40;92.60;;;;;;5055839;28;20137;-82
2021/08/09 05:23:31;;;;;;;0.73;0.73;;;15.40;92.60;;;;;;5074579;28;20025;-83
2021/08/09 05:25:57;;;;;;;2.17;0.82;;;15.50;92.70;;;;;;5074408;28;20016;-82
2021/08/09 05:28:23;;;;;;;0.50;0.43;;;15.50;92.70;;;;;;5074251;28;20025;-83
2021/08/09 05:30:48;;;;;;;1.73;0.52;;;15.50;92.70;;;;;;5074453;28;20017;-82
2021/08/09 05:33:14;;;;;;;0.63;0.45;;;15.50;92.70;;;;;;5056343;28;20465;-82
2021/08/09 05:35:40;;;;;;;0.63;0.60;;;15.50;92.70;;;;;;5073650;28;20017;-82
2021/08/09 05:38:08;;;;;;;1.60;0.73;;;15.50;92.70;;;;;;5073055;28;20135;-82
2021/08/09 05:40:35;;;;;;;0.63;0.63;;;15.60;92.70;;;;;;5074171;28;20056;-82
2021/08/09 05:43:01;;;;;;;0.60;0.60;;;15.60;92.70;;;;;;5073987;28;20095;-82
2021/08/09 05:45:26;;;;;;;0.95;0.85;;;15.70;92.70;;;;;;5073911;28;20028;-83
2021/08/09 05:47:52;;;;;;;1.05;0.65;;;15.70;92.60;;;;;;5074093;28;20025;-83
2021/08/09 05:50:17;;;;;;;0.82;0.73;;;15.80;92.70;;;;;;5073444;28;20107;-83
2021/08/09 05:52:43;;;;;;;0.47;0.43;;;15.80;92.60;;;;;;5074052;28;20024;-84
2021/08/09 05:55:09;;;;;;;0.93;0.70;;;15.90;92.60;;;;;;5056085;28;20381;-83
2021/08/09 05:57:34;;;;;;;1.02;0.82;;;15.90;92.60;;;;;;5056000;28;20059;-83
2021/08/09 06:00:00;;;;;;;2.05;0.82;;;15.90;92.60;;;;;;5073732;28;20090;-83
2021/08/09 06:02:25;;;;;;;0.70;0.70;;;15.90;92.60;;;;;;5073723;28;20388;-84
2021/08/09 06:04:52;;;;;;;1.40;0.85;;;15.90;92.60;;;;;;5073323;28;20126;-83
2021/08/09 06:07:18;;;;;;;0.65;0.65;;;15.90;92.60;;;;;;5055777;28;20021;-82
2021/08/09 06:09:44;;;;;;;1.17;0.75;;;15.90;92.60;;;;;;5055708;28;20043;-82
2021/08/09 06:12:11;;;;;;;0.90;0.70;;;15.90;92.60;;;;;;5073469;28;20028;-83
2021/08/09 06:14:37;;;;;;;0.88;0.80;;;15.90;92.60;;;;;;5073547;28;20027;-82
2021/08/09 06:17:07;;;;;;;0.35;0.35;;;15.90;92.70;;;;;;5073496;28;20422;-83
2021/08/09 06:19:36;;;;;;;1.13;0.60;;;15.90;92.70;;;;;;5072776;28;20392;-83
2021/08/09 06:22:02;;;;;;;0.47;0.43;;;15.80;92.70;;;;;;5051925;28;20098;-83
2021/08/09 06:24:27;;;;;;;0.60;0.50;;;15.90;92.70;;;;;;5053148;28;20504;-82
2021/08/09 06:26:53;;;;;;;0.70;0.70;;;15.80;92.70;;;;;;5053548;28;20048;-82
2021/08/09 06:29:18;;;;;;;0.50;0.50;;;15.80;92.70;;;;;;5053405;28;20029;-82
2021/08/09 06:31:44;;;;;;;0.60;0.60;;;15.80;92.70;;;;;;5052012;28;20032;-83
2021/08/09 06:34:10;;;;;;;0.70;0.70;;;15.90;92.70;;;;;;5052891;28;20021;-83
2021/08/09 06:36:35;;;;;;;1.33;0.80;;;15.90;92.70;;;;;;5053357;28;20021;-82
2021/08/09 06:39:01;;;;;;;0.57;0.47;;;15.90;92.70;;;;;;5053187;28;20037;-82
2021/08/09 06:41:31;;;;;;;1.88;1.10;;;15.90;92.70;;;;;;5053219;28;20025;-83
2021/08/09 06:43:56;;;;;;;0.70;0.70;;;16.00;92.70;;;;;;5055927;28;20112;-83
2021/08/09 06:46:22;;;;;;;0.60;0.60;;;16.00;92.60;;;;;;5059501;28;20105;-83
2021/08/09 06:48:47;;;;;;;1.23;0.77;;;16.10;92.70;;;;;;5059856;28;20029;-83
2021/08/09 06:51:13;;;;;;;0.40;0.40;;;16.10;92.70;;;;;;5059905;28;20021;-83
2021/08/09 06:53:38;;;;;;;1.30;0.60;;;16.20;92.60;;;;;;5059724;28;20017;-84
2021/08/09 06:56:04;;;;;;;1.02;0.77;;;16.20;92.60;;;;;;5059915;28;20480;-83
2021/08/09 06:58:29;;;;;;;0.68;0.68;;;16.30;92.60;;;;;;5058413;28;20041;-84
2021/08/09 07:00:55;;;;;;;0.75;0.75;;;16.40;92.60;;;;;;5058130;28;20048;-82
2021/08/09 07:03:20;;;;;;;0.90;0.70;;;16.40;92.60;;;;;;5059752;28;20097;-82
2021/08/09 07:05:47;;;;;;;0.70;0.70;;;16.40;92.60;;;;;;5059625;28;20462;-84
2021/08/09 07:08:13;;;;;;;1.23;0.85;;;16.50;92.60;;;;;;5059669;28;20025;-83
2021/08/09 07:10:41;;;;;;;0.77;0.70;;;16.50;92.60;;;;;;5059876;28;20021;-83
2021/08/09 07:13:06;;;;;;;0.47;0.45;;;16.60;92.60;;;;;;5059716;28;20518;-82
2021/08/09 07:15:32;;;;;;;0.55;0.55;;;16.70;92.60;;;;;;5059368;28;20104;-85
2021/08/09 07:17:57;;;;;;;1.17;0.60;;;16.70;92.50;;;;;;5059647;28;20469;-84
2021/08/09 07:20:23;;;;;;;1.10;1.00;;;16.80;92.50;;;;;;5061855;28;20017;-84
2021/08/09 07:22:49;;;;;;;0.40;0.40;;;16.80;92.50;;;;;;5079652;28;20481;-85
2021/08/09 07:25:16;;;;;;;0.50;0.50;;;16.90;92.50;;;;;;5080103;28;20027;-83
2021/08/09 07:27:42;;;;;;;0.70;0.70;;;16.90;92.50;;;;;;5079586;28;20111;-84
2021/08/09 07:30:10;;;;;;;0.65;0.50;;;17.00;92.50;;;;;;5079334;28;20377;-84
2021/08/09 07:32:36;;;;;;;0.93;0.90;;;17.00;92.40;;;;;;5079180;28;20024;-84
2021/08/09 07:35:02;;;;;;;1.35;0.82;;;17.10;92.50;;;;;;5079639;28;20082;-82
2021/08/09 07:37:28;;;;;;;1.10;1.00;;;17.10;92.40;;;;;;5061584;28;20444;-87
2021/08/09 07:39:53;;;;;;;1.00;0.80;;;17.20;92.40;;;;;;5062146;28;20016;-83
2021/08/09 07:42:19;;;;;;;0.70;0.70;;;17.30;92.40;;;;;;5079436;28;20020;-83
2021/08/09 07:44:44;;;;;;;0.98;0.82;;;17.30;92.40;;;;;;5079257;28;20044;-84
2021/08/09 07:47:10;;;;;;;0.70;0.70;;;17.40;92.40;;;;;;5079961;28;20028;-88
2021/08/09 07:49:35;;;;;;;0.40;0.40;;;17.40;92.30;;;;;;5061723;28;20469;-84
2021/08/09 07:52:01;;;;;;;0.52;0.52;;;17.50;92.40;;;;;;5061768;28;20020;-86
2021/08/09 07:54:27;;;;;;;1.17;0.80;;;17.50;92.40;;;;;;5079544;28;20412;-85
2021/08/09 07:56:53;;;;;;;0.95;0.70;;;17.50;92.30;;;;;;5075172;28;20024;-85
2021/08/09 07:59:21;;;;;;;1.13;0.85;;;17.60;92.30;;;;;;5075715;28;20504;-84
2021/08/09 08:01:47;;;;;;;1.75;0.95;;;17.60;92.30;;;;;;5076212;28;20020;-85
2021/08/09 08:04:12;;;;;;;0.45;0.45;;;17.70;92.30;;;;;;5076198;28;20097;-83
2021/08/09 08:06:38;;;;;;;0.50;0.50;;;17.70;92.30;;;;;;5076176;28;20528;-83
2021/08/09 08:09:04;;;;;;;0.80;0.60;;;17.80;92.20;;;;;;5076496;28;20100;-85
2021/08/09 08:11:29;;;;;;;0.63;0.60;;;17.90;92.20;;;;;;5076286;28;20488;-86
2021/08/09 08:13:55;;;;;;;0.60;0.60;;;18.00;92.20;;;;;;5075494;28;20028;-84
2021/08/09 08:16:20;;;;;;;0.90;0.60;;;18.00;92.20;;;;;;5075955;28;20021;-84
2021/08/09 08:18:46;;;;;;;0.50;0.50;;;18.10;92.50;;;;;;5058151;28;20044;-83
2021/08/09 08:21:12;;;;;;;0.80;0.65;;;18.10;92.20;;;;;;5075499;28;20080;-83
2021/08/09 08:23:38;;;;;;;2.50;1.10;;;18.10;92.10;;;;;;5076108;28;20048;-85
2021/08/09 08:26:03;;;;;;;1.45;0.80;;;18.20;92.10;;;;;;5075977;28;20055;-84
2021/08/09 08:28:29;;;;;;;1.35;0.75;;;18.20;92.20;;;;;;5075377;28;20021;-83
2021/08/09 08:30:54;;;;;;;0.73;0.70;;;18.30;92.10;;;;;;5075970;28;20012;-84
2021/08/09 08:33:20;;;;;;;0.65;0.52;;;18.40;92.10;;;;;;5075762;28;20117;-85
2021/08/09 08:35:45;;;;;;;0.55;0.47;;;18.60;92.10;;;;;;5057683;28;20025;-84
2021/08/09 08:38:11;;;;;;;1.05;0.63;;;18.70;92.00;;;;;;5058172;28;20435;-87
2021/08/09 08:40:45;;;;;;;0.60;0.50;;;18.90;91.80;;;;;;5076879;28;20020;-85
2021/08/09 08:43:31;;;;;;;1.17;0.43;;;19.00;91.80;;;;;;5057793;28;20036;-86
2021/08/09 08:45:58;;;;;;;0.95;0.85;;;19.10;91.80;;;;;;5075932;28;20459;-87
2021/08/09 08:48:25;;;;;;;0.85;0.50;;;19.10;91.80;;;;;;5075559;28;20429;-85
2021/08/09 08:50:52;;;;;;;0.50;0.50;;;19.10;91.80;;;;;;5075778;28;20021;-85
2021/08/09 08:53:21;;;;;;;0.60;0.60;;;19.20;91.80;;;;;;5057931;28;20132;-85
2021/08/09 08:55:46;;;;;;;0.50;0.50;;;19.20;91.80;;;;;;5075498;28;20119;-83
2021/08/09 08:58:12;;;;;;;0.60;0.60;;;19.30;91.80;;;;;;5056923;28;20463;-84
2021/08/09 09:00:38;;;;;;;0.73;0.73;;;19.30;91.80;;;;;;5057248;28;20070;-84
2021/08/09 09:03:19;;;;;;;0.70;0.68;;;19.30;91.70;;;;;;5057812;28;20111;-87
2021/08/09 09:06:08;;;;;;;1.45;0.63;;;19.40;91.70;;;;;;5057718;28;20032;-83
2021/08/09 09:08:39;;;;;;;0.98;0.60;;;19.40;91.70;;;;;;5057347;28;20033;-84
2021/08/09 09:11:12;;;;;;;0.60;0.60;;;19.50;91.70;;;;;;5057544;28;20036;-85
2021/08/09 09:13:57;;;;;;;0.50;0.50;;;19.60;91.60;;;;;;5074738;28;20104;-85
2021/08/09 09:16:24;;;;;;;0.50;0.50;;;19.80;91.50;;;;;;5074885;28;20036;-87
2021/08/09 09:18:55;;;;;;;0.73;0.50;;;19.90;91.40;;;;;;5075483;28;20028;-84
2021/08/09 09:21:25;;;;;;;0.32;0.32;;;20.10;91.30;;;;;;5074772;28;20048;-88
2021/08/09 09:23:52;;;;;;;1.17;0.52;;;20.20;91.20;;;;;;5074872;28;20032;-84
2021/08/09 09:26:22;;;;;;;0.60;0.60;;;20.30;91.10;;;;;;5074281;28;20031;-83
2021/08/09 09:28:50;;;;;;;0.55;0.55;;;20.30;91.10;;;;;;5074399;28;20024;-86
2021/08/09 09:31:27;;;;;;;0.43;0.43;;;20.30;91.20;;;;;;5074496;28;20028;-85
2021/08/09 09:33:52;;;;;;;0.80;0.70;;;20.50;91.20;;;;;;5074533;28;20044;-83
2021/08/09 09:36:21;;;;;;;0.50;0.30;;;20.60;91.00;;;;;;5074966;28;20016;-87
2021/08/09 09:38:49;;;;;;;0.88;0.70;;;20.60;91.00;;;;;;5056950;28;20032;-85
2021/08/09 09:41:14;;;;;;;0.77;0.60;;;20.70;91.00;;;;;;5055930;28;20021;-85
2021/08/09 09:43:45;;;;;;;0.80;0.68;;;20.70;91.00;;;;;;5074166;28;20047;-82
2021/08/09 09:46:26;;;;;;;0.50;0.50;;;20.80;90.80;;;;;;5074448;28;20066;-86
2021/08/09 09:48:56;;;;;;;0.43;0.43;;;20.80;90.80;;;;;;5074192;28;20032;-82
2021/08/09 09:51:21;;;;;;;0.65;0.40;;;20.70;90.80;;;;;;5074505;28;20017;-81
2021/08/09 09:53:49;;;;;;;0.60;0.60;;;20.80;90.80;;;;;;5073984;28;20055;-82
2021/08/09 09:56:15;;;;;;;2.25;0.90;;;20.80;90.70;;;;;;5073474;28;20025;-83
2021/08/09 09:58:41;;;;;;;0.40;0.40;;;20.90;90.70;;;;;;5073973;28;20033;-83
2021/08/09 10:01:08;;;;;;;0.52;0.50;;;20.90;90.70;;;;;;5073973;28;20016;-82
2021/08/09 10:03:36;;;;;;;1.15;0.60;;;20.90;90.70;;;;;;5073848;28;20481;-83
2021/08/09 10:06:03;;;;;;;0.40;0.40;;;21.00;90.70;;;;;;5073789;28;20028;-83
2021/08/09 10:08:33;;;;;;;0.80;0.70;;;21.10;90.70;;;;;;5073552;28;20031;-83
2021/08/09 10:11:00;;;;;;;0.82;0.68;;;21.20;90.60;;;;;;5055211;28;20052;-83
2021/08/09 10:13:27;;;;;;;1.58;0.63;;;21.20;90.60;;;;;;5073593;28;20401;-86
2021/08/09 10:16:03;;;;;;;0.60;0.60;;;21.20;90.40;;;;;;5055514;28;20119;-81
2021/08/09 10:18:32;;;;;;;0.90;0.70;;;21.10;90.40;;;;;;5072948;28;20040;-83
2021/08/09 10:21:00;;;;;;;0.68;0.65;;;21.10;90.50;;;;;;5073143;28;20037;-82
2021/08/09 10:23:38;;;;;;;0.80;0.70;;;21.20;90.50;;;;;;5073511;28;20032;-85
2021/08/09 10:26:05;;;;;;;0.73;0.65;;;21.40;90.40;;;;;;5073385;28;20021;-82
2021/08/09 10:28:51;;;;;;;0.40;0.40;;;21.60;90.30;;;;;;5073376;28;20115;-83
2021/08/09 10:31:24;;;;;;;0.73;0.55;;;21.70;90.20;;;;;;5073414;28;20028;-83
2021/08/09 10:33:51;;;;;;;0.70;0.70;;;21.80;90.00;;;;;;5055616;28;20087;-83
2021/08/09 10:36:21;;;;;;;0.50;0.50;;;21.70;90.10;;;;;;5073250;28;20163;-82
2021/08/09 10:38:49;;;;;;;0.68;0.45;;;21.60;90.10;;;;;;5054886;28;20493;-83
2021/08/09 10:41:14;;;;;;;0.55;0.55;;;21.50;90.10;;;;;;5072340;28;20017;-83
2021/08/09 10:44:15;;;;;;;1.45;0.50;;;21.40;90.20;;;;;;5055350;28;20111;-84
2021/08/09 10:46:44;;;;;;;1.60;0.63;;;21.60;90.20;;;;;;5073434;28;20034;-81
2021/08/09 10:49:30;;;;;;;0.90;0.90;;;21.80;90.10;;;;;;5073582;28;20025;-81
2021/08/09 10:51:55;;;;;;;0.40;0.40;;;21.90;89.70;;;;;;5073420;28;20028;-84
2021/08/09 10:54:29;;;;;;;0.93;0.68;;;21.90;89.60;;;;;;5073195;28;20021;-84
2021/08/09 10:56:55;;;;;;;0.77;0.77;;;21.90;89.50;;;;;;5073266;28;20028;-84
2021/08/09 10:59:46;;;;;;;0.40;0.40;;;21.80;89.80;;;;;;5073266;28;20032;-83
2021/08/09 11:02:20;;;;;;;0.73;0.43;;;21.80;89.60;;;;;;5073154;28;20039;-82
2021/08/09 11:05:16;;;;;;;0.50;0.50;;;21.70;89.70;;;;;;5073308;28;20025;-82
2021/08/09 11:07:43;;;;;;;0.70;0.70;;;21.70;89.70;;;;;;5072942;28;20051;-86
2021/08/09 11:10:09;;;;;;;0.60;0.45;;;21.60;89.80;;;;;;5073246;28;20013;-83
2021/08/09 11:12:59;;;;;;;0.32;0.32;;;21.50;89.90;;;;;;5072968;28;20024;-84
2021/08/09 11:15:25;;;;;;;0.95;0.68;;;21.50;89.90;;;;;;5072986;28;20052;-82
2021/08/09 11:17:55;;;;;;;0.95;0.95;;;21.40;89.60;;;;;;5073001;28;20110;-83
2021/08/09 11:20:30;;;;;;;0.35;0.30;;;21.30;89.70;;;;;;5072703;28;20025;-84
2021/08/09 11:23:01;;;;;;;0.50;0.50;;;21.10;89.90;;;;;;5054809;28;20028;-82
2021/08/09 11:25:30;;;;;;;0.43;0.43;;;20.80;90.20;;;;;;5073085;28;20107;-84
2021/08/09 11:28:11;;;;;;;0.38;0.30;;;20.60;90.50;;;;;;5054790;28;20035;-82
2021/08/09 11:30:44;;;;;;;0.43;0.43;;;20.40;90.60;;;;;;5074981;28;20028;-82
2021/08/09 11:33:28;;;;;;;0.88;0.43;;;20.20;90.60;;;;;;5076675;28;20074;-83
2021/08/09 11:36:05;;;;;;;0.50;0.50;;;20.00;90.60;;;;;;5076537;28;20020;-82
2021/08/09 11:38:52;;;;;;;0.65;0.65;;;19.70;90.80;;;;;;5075891;28;20074;-83
2021/08/09 11:41:28;;;;;;;1.42;0.60;;;19.50;90.90;;;;;;5076518;28;20034;-82
2021/08/09 11:44:10;;;;;;;0.63;0.52;;;19.30;91.10;;;;;;5076186;28;20021;-81
2021/08/09 11:46:47;;;;;;;0.35;0.35;;;19.20;91.30;;;;;;5076374;28;20028;-82
2021/08/09 11:49:13;;;;;;;0.38;0.38;;;19.30;91.20;;;;;;5076225;28;20031;-82
2021/08/09 11:51:39;;;;;;;0.28;0.28;;;19.50;91.00;;;;;;5075565;28;20033;-82
2021/08/09 11:54:06;;;;;;;0.47;0.43;;;19.80;90.80;;;;;;5076209;28;20031;-81
2021/08/09 11:56:34;;;;;;;0.60;0.60;;;20.00;90.60;;;;;;5076181;28;20381;-80
2021/08/09 11:59:13;;;;;;;0.77;0.38;;;20.30;90.30;;;;;;5075926;28;20127;-82
2021/08/09 12:01:40;;;;;;;0.52;0.45;;;20.60;90.00;;;;;;5058055;28;20028;-82
2021/08/09 12:04:14;;;;;;;0.30;0.30;;;20.90;89.60;;;;;;5076001;28;20032;-82
2021/08/09 12:06:57;;;;;;;0.57;0.55;;;21.10;88.90;;;;;;5075630;28;20032;-85
2021/08/09 12:09:38;;;;;;;0.90;0.57;;;21.10;88.70;;;;;;5076108;28;20422;-83
2021/08/09 12:12:06;;;;;;;0.40;0.40;;;21.00;89.10;;;;;;5075841;28;20048;-82
2021/08/09 12:14:33;;;;;;;0.93;0.70;;;21.00;89.20;;;;;;5075832;28;20388;-82
2021/08/09 12:17:00;;;;;;;0.50;0.50;;;20.90;89.10;;;;;;5075564;28;20028;-83
2021/08/09 12:19:42;;;;;;;0.30;0.30;;;20.90;89.30;;;;;;5075653;28;20033;-82
2021/08/09 12:22:10;;;;;;;0.50;0.50;;;21.10;89.20;;;;;;5074941;28;20045;-82
2021/08/09 12:24:43;;;;;;;0.30;0.30;;;21.20;88.80;;;;;;5075723;28;20526;-82
2021/08/09 12:27:21;;;;;;;1.65;0.50;;;21.30;88.50;;;;;;5075874;28;20021;-84
2021/08/09 12:30:09;;;;;;;0.22;0.22;;;21.40;88.50;;;;;;5075522;28;20564;-84
2021/08/09 12:32:36;;;;;;;1.83;0.60;;;21.90;88.00;;;;;;5057672;28;20107;-83
2021/08/09 12:35:04;;;;;;;1.50;0.75;;;22.40;87.30;;;;;;5075121;28;20074;-83
2021/08/09 12:37:29;;;;;;;0.50;0.50;;;23.00;86.40;;;;;;5075202;28;20024;-84
2021/08/09 12:40:16;;;;;;;0.60;0.57;;;23.50;86.00;;;;;;5057512;28;20084;-83
2021/08/09 12:42:43;;;;;;;1.17;0.60;;;24.00;85.40;;;;;;5056757;28;20115;-84
2021/08/09 12:45:10;;;;;;;0.50;0.50;;;24.30;84.60;;;;;;5075481;28;20017;-85
2021/08/09 12:47:35;;;;;;;2.00;0.50;;;24.40;84.30;;;;;;5075436;28;20013;-84
2021/08/09 12:50:01;;;;;;;0.40;0.40;;;24.40;84.40;;;;;;5074757;28;20401;-83
2021/08/09 12:52:27;;;;;;;0.70;0.50;;;23.80;85.10;;;;;;5075246;28;20025;-83
2021/08/09 12:54:52;;;;;;;0.90;0.40;;;23.50;86.20;;;;;;5057194;28;20033;-83
2021/08/09 12:57:18;;;;;;;0.45;0.45;;;23.40;86.30;;;;;;5075184;28;20519;-84